createdAt,value
2017-08-05T00:00:37.571Z,954.72
2017-08-05T00:01:37.575Z,954.73
2017-08-05T00:02:37.564Z,954.72
2017-08-05T00:03:37.559Z,954.72
2017-08-05T00:04:37.696Z,954.76
2017-08-05T00:05:37.697Z,954.74
2017-08-05T00:06:37.548Z,954.74
2017-08-05T00:07:37.545Z,954.73
2017-08-05T00:08:37.647Z,954.72
2017-08-05T00:09:37.538Z,954.71
2017-08-05T00:10:37.533Z,954.73
2017-08-05T00:11:37.529Z,954.78
2017-08-05T00:12:37.529Z,954.76
2017-08-05T00:13:37.826Z,954.72
2017-08-05T00:14:37.518Z,954.78
2017-08-05T00:15:37.513Z,954.76
2017-08-05T00:16:37.510Z,954.75
2017-08-05T00:17:37.631Z,954.76
2017-08-05T00:18:37.501Z,954.72
2017-08-05T00:19:37.498Z,954.75
2017-08-05T00:20:37.495Z,954.73
2017-08-05T00:21:37.490Z,954.77
2017-08-05T00:22:37.596Z,954.74
2017-08-05T00:23:37.482Z,954.73
2017-08-05T00:24:37.483Z,954.71
2017-08-05T00:25:37.623Z,954.73
2017-08-05T00:26:37.572Z,954.72
2017-08-05T00:27:37.466Z,954.72
2017-08-05T00:28:37.475Z,954.73
2017-08-05T00:29:37.458Z,954.77
2017-08-05T00:30:37.598Z,954.81
2017-08-05T00:31:37.451Z,954.8
2017-08-05T00:32:37.445Z,954.75
2017-08-05T00:33:37.461Z,954.79
2017-08-05T00:34:37.439Z,954.79
2017-08-05T00:35:37.481Z,954.77
2017-08-05T00:36:37.430Z,954.76
2017-08-05T00:37:37.700Z,954.79
2017-08-05T00:38:37.422Z,954.79
2017-08-05T00:39:37.416Z,954.8
2017-08-05T00:40:37.425Z,954.79
2017-08-05T00:41:37.409Z,954.82
2017-08-05T00:42:37.409Z,954.83
2017-08-05T00:43:37.744Z,954.86
2017-08-05T00:44:37.397Z,954.83
2017-08-05T00:45:37.393Z,954.84
2017-08-05T00:46:37.406Z,954.87
2017-08-05T00:47:37.384Z,954.87
2017-08-05T00:48:37.380Z,954.85
2017-08-05T00:49:37.378Z,954.87
2017-08-05T00:50:37.372Z,954.8
2017-08-05T00:51:37.515Z,954.85
2017-08-05T00:52:37.364Z,954.86
2017-08-05T00:53:37.360Z,954.85
2017-08-05T00:54:37.477Z,954.82
2017-08-05T00:55:37.352Z,954.79
2017-08-05T00:56:37.504Z,954.78
2017-08-05T00:57:37.344Z,954.74
2017-08-05T00:58:37.339Z,954.73
2017-08-05T00:59:37.335Z,954.73
2017-08-05T01:00:37.331Z,954.68
2017-08-05T01:01:37.327Z,954.7
2017-08-05T01:02:37.323Z,954.71
2017-08-05T01:03:37.489Z,954.72
2017-08-05T01:04:37.314Z,954.66
2017-08-05T01:05:37.340Z,954.65
2017-08-05T01:06:37.306Z,954.63
2017-08-05T01:07:37.301Z,954.62
2017-08-05T01:08:37.297Z,954.63
2017-08-05T01:09:37.293Z,954.62
2017-08-05T01:10:37.438Z,954.64
2017-08-05T01:11:37.435Z,954.64
2017-08-05T01:12:37.280Z,954.59
2017-08-05T01:13:37.276Z,954.63
2017-08-05T01:14:37.272Z,954.6
2017-08-05T01:15:37.268Z,954.65
2017-08-05T01:16:37.262Z,954.66
2017-08-05T01:17:37.265Z,954.65
2017-08-05T01:18:37.256Z,954.64
2017-08-05T01:19:37.389Z,954.66
2017-08-05T01:20:37.477Z,954.65
2017-08-05T01:21:37.244Z,954.62
2017-08-05T01:22:37.239Z,954.63
2017-08-05T01:23:37.235Z,954.63
2017-08-05T01:24:37.484Z,954.61
2017-08-05T01:25:37.362Z,954.64
2017-08-05T01:26:37.221Z,954.64
2017-08-05T01:27:37.309Z,954.66
2017-08-05T01:28:37.213Z,954.67
2017-08-05T01:29:37.207Z,954.64
2017-08-05T01:30:37.204Z,954.66
2017-08-05T01:31:37.352Z,954.61
2017-08-05T01:32:37.313Z,954.65
2017-08-05T01:33:37.190Z,954.66
2017-08-05T01:34:37.184Z,954.66
2017-08-05T01:35:37.187Z,954.67
2017-08-05T01:36:37.177Z,954.72
2017-08-05T01:37:37.297Z,954.71
2017-08-05T01:38:37.344Z,954.7
2017-08-05T01:39:37.163Z,954.73
2017-08-05T01:40:37.182Z,954.68
2017-08-05T01:41:37.157Z,954.71
2017-08-05T01:42:37.152Z,954.76
2017-08-05T01:43:37.147Z,954.79
2017-08-05T01:44:37.292Z,954.83
2017-08-05T01:45:37.138Z,954.79
2017-08-05T01:46:37.134Z,954.82
2017-08-05T01:47:37.128Z,954.89
2017-08-05T01:48:37.262Z,954.9
2017-08-05T01:49:37.118Z,954.89
2017-08-05T01:50:37.115Z,954.9
2017-08-05T01:51:37.111Z,954.93
2017-08-05T01:52:37.106Z,954.93
2017-08-05T01:53:37.102Z,954.95
2017-08-05T01:54:37.195Z,954.94
2017-08-05T01:55:37.223Z,954.97
2017-08-05T01:56:37.088Z,954.95
2017-08-05T01:57:37.083Z,954.92
2017-08-05T01:58:37.089Z,954.91
2017-08-05T01:59:37.074Z,954.91
2017-08-05T02:00:37.070Z,954.88
2017-08-05T02:01:37.192Z,954.86
2017-08-05T02:02:37.200Z,954.94
2017-08-05T02:03:37.055Z,954.94
2017-08-05T02:04:37.051Z,954.98
2017-08-05T02:05:37.050Z,955.06
2017-08-05T02:06:37.045Z,955.05
2017-08-05T02:07:37.202Z,955.08
2017-08-05T02:08:37.033Z,955.07
2017-08-05T02:09:37.045Z,955.07
2017-08-05T02:10:37.026Z,955.06
2017-08-05T02:11:37.019Z,955.08
2017-08-05T02:12:37.015Z,955.07
2017-08-05T02:13:37.010Z,955.1
2017-08-05T02:14:37.005Z,955.1
2017-08-05T02:15:37.001Z,955.11
2017-08-05T02:16:36.996Z,955.13
2017-08-05T02:17:36.992Z,955.16
2017-08-05T02:18:36.995Z,955.12
2017-08-05T02:19:36.981Z,955.11
2017-08-05T02:20:36.978Z,955.07
2017-08-05T02:21:36.973Z,955.08
2017-08-05T02:22:36.968Z,955.07
2017-08-05T02:23:36.973Z,955.04
2017-08-05T02:24:36.958Z,955.06
2017-08-05T02:25:36.954Z,955
2017-08-05T02:26:36.966Z,955
2017-08-05T02:27:36.946Z,955.03
2017-08-05T02:28:36.941Z,955.01
2017-08-05T02:29:36.935Z,954.98
2017-08-05T02:30:36.936Z,954.97
2017-08-05T02:31:36.927Z,954.93
2017-08-05T02:32:36.923Z,954.93
2017-08-05T02:33:36.916Z,954.91
2017-08-05T02:34:36.932Z,954.85
2017-08-05T02:35:36.908Z,954.85
2017-08-05T02:36:36.902Z,954.84
2017-08-05T02:37:36.898Z,954.8
2017-08-05T02:38:36.893Z,954.83
2017-08-05T02:39:36.889Z,954.81
2017-08-05T02:40:36.896Z,954.88
2017-08-05T02:41:36.878Z,954.87
2017-08-05T02:42:36.873Z,954.83
2017-08-05T02:43:36.884Z,954.83
2017-08-05T02:44:36.863Z,954.83
2017-08-05T02:45:36.859Z,954.83
2017-08-05T02:46:36.854Z,954.81
2017-08-05T02:47:36.849Z,954.82
2017-08-05T02:48:36.844Z,954.77
2017-08-05T02:49:36.839Z,954.8
2017-08-05T02:50:36.839Z,954.78
2017-08-05T02:51:36.829Z,954.77
2017-08-05T02:52:36.824Z,954.75
2017-08-05T02:53:36.835Z,954.72
2017-08-05T02:54:36.817Z,954.75
2017-08-05T02:55:36.822Z,954.75
2017-08-05T02:56:36.806Z,954.69
2017-08-05T02:57:36.802Z,954.69
2017-08-05T02:58:36.795Z,954.68
2017-08-05T02:59:36.790Z,954.72
2017-08-05T03:00:36.785Z,954.71
2017-08-05T03:01:36.781Z,954.76
2017-08-05T03:02:36.775Z,954.78
2017-08-05T03:03:36.771Z,954.75
2017-08-05T03:04:36.773Z,954.76
2017-08-05T03:05:36.761Z,954.73
2017-08-05T03:06:36.775Z,954.75
2017-08-05T03:07:36.750Z,954.7
2017-08-05T03:08:36.749Z,954.71
2017-08-05T03:09:36.743Z,954.68
2017-08-05T03:10:36.736Z,954.69
2017-08-05T03:11:36.732Z,954.72
2017-08-05T03:12:36.727Z,954.75
2017-08-05T03:13:36.722Z,954.8
2017-08-05T03:14:36.719Z,954.78
2017-08-05T03:15:37.410Z,954.77
2017-08-05T03:16:36.706Z,954.8
2017-08-05T03:17:36.701Z,954.77
2017-08-05T03:18:36.697Z,954.77
2017-08-05T03:19:36.702Z,954.81
2017-08-05T03:20:36.686Z,954.82
2017-08-05T03:21:36.682Z,954.83
2017-08-05T03:22:36.676Z,954.82
2017-08-05T03:23:36.671Z,954.84
2017-08-05T03:24:36.665Z,954.86
2017-08-05T03:25:36.664Z,954.82
2017-08-05T03:26:36.656Z,954.83
2017-08-05T03:27:36.650Z,954.87
2017-08-05T03:28:36.645Z,954.88
2017-08-05T03:29:36.640Z,954.87
2017-08-05T03:30:36.635Z,954.87
2017-08-05T03:31:36.629Z,954.85
2017-08-05T03:32:36.641Z,954.84
2017-08-05T03:33:36.620Z,954.8
2017-08-05T03:34:36.616Z,954.84
2017-08-05T03:35:36.609Z,954.82
2017-08-05T03:36:36.603Z,954.81
2017-08-05T03:37:36.598Z,954.84
2017-08-05T03:38:36.596Z,954.8
2017-08-05T03:39:36.638Z,954.77
2017-08-05T03:40:36.582Z,954.77
2017-08-05T03:41:36.577Z,954.79
2017-08-05T03:42:36.572Z,954.79
2017-08-05T03:43:36.565Z,954.76
2017-08-05T03:44:36.561Z,954.79
2017-08-05T03:45:36.556Z,954.77
2017-08-05T03:46:36.550Z,954.72
2017-08-05T03:47:36.555Z,954.71
2017-08-05T03:48:36.541Z,954.62
2017-08-05T03:49:36.548Z,954.63
2017-08-05T03:50:36.541Z,954.64
2017-08-05T03:51:36.546Z,954.61
2017-08-05T03:52:36.518Z,954.61
2017-08-05T03:53:36.513Z,954.65
2017-08-05T03:54:36.528Z,954.63
2017-08-05T03:55:36.502Z,954.62
2017-08-05T03:56:36.495Z,954.66
2017-08-05T03:57:36.490Z,954.67
2017-08-05T03:58:36.485Z,954.62
2017-08-05T03:59:36.525Z,954.63
2017-08-05T04:00:36.473Z,954.59
2017-08-05T04:01:36.468Z,954.59
2017-08-05T04:02:36.463Z,954.58
2017-08-05T04:03:36.458Z,954.63
2017-08-05T04:04:36.487Z,954.64
2017-08-05T04:05:36.446Z,954.64
2017-08-05T04:06:36.467Z,954.64
2017-08-05T04:07:36.436Z,954.69
2017-08-05T04:08:36.430Z,954.65
2017-08-05T04:09:36.462Z,954.68
2017-08-05T04:10:36.421Z,954.69
2017-08-05T04:11:36.413Z,954.72
2017-08-05T04:12:36.409Z,954.72
2017-08-05T04:13:36.422Z,954.74
2017-08-05T04:14:36.398Z,954.73
2017-08-05T04:15:36.391Z,954.74
2017-08-05T04:16:36.408Z,954.76
2017-08-05T04:17:36.381Z,954.75
2017-08-05T04:18:36.396Z,954.72
2017-08-05T04:19:36.370Z,954.73
2017-08-05T04:20:36.382Z,954.71
2017-08-05T04:21:36.360Z,954.73
2017-08-05T04:22:36.354Z,954.73
2017-08-05T04:23:36.348Z,954.73
2017-08-05T04:24:36.343Z,954.75
2017-08-05T04:25:36.338Z,954.7
2017-08-05T04:26:36.349Z,954.67
2017-08-05T04:27:36.327Z,954.68
2017-08-05T04:28:36.321Z,954.64
2017-08-05T04:29:36.316Z,954.65
2017-08-05T04:30:36.309Z,954.67
2017-08-05T04:31:36.304Z,954.65
2017-08-05T04:32:36.299Z,954.63
2017-08-05T04:33:36.292Z,954.67
2017-08-05T04:34:36.294Z,954.65
2017-08-05T04:35:36.292Z,954.65
2017-08-05T04:36:36.276Z,954.69
2017-08-05T04:37:36.272Z,954.69
2017-08-05T04:38:36.267Z,954.69
2017-08-05T04:39:36.278Z,954.7
2017-08-05T04:40:36.257Z,954.71
2017-08-05T04:41:36.269Z,954.74
2017-08-05T04:42:36.245Z,954.74
2017-08-05T04:43:36.241Z,954.75
2017-08-05T04:44:36.234Z,954.73
2017-08-05T04:45:36.229Z,954.72
2017-08-05T04:46:36.224Z,954.68
2017-08-05T04:47:36.218Z,954.69
2017-08-05T04:48:36.213Z,954.69
2017-08-05T04:49:36.210Z,954.68
2017-08-05T04:50:36.201Z,954.67
2017-08-05T04:51:36.197Z,954.67
2017-08-05T04:52:36.192Z,954.62
2017-08-05T04:53:36.186Z,954.64
2017-08-05T04:54:36.182Z,954.66
2017-08-05T04:55:36.176Z,954.7
2017-08-05T04:56:36.170Z,954.68
2017-08-05T04:57:36.165Z,954.67
2017-08-05T04:58:36.161Z,954.69
2017-08-05T04:59:36.154Z,954.67
2017-08-05T05:00:36.149Z,954.69
2017-08-05T05:01:36.144Z,954.7
2017-08-05T05:02:36.149Z,954.68
2017-08-05T05:03:36.133Z,954.67
2017-08-05T05:04:36.128Z,954.67
2017-08-05T05:05:36.124Z,954.59
2017-08-05T05:06:36.117Z,954.6
2017-08-05T05:07:36.113Z,954.59
2017-08-05T05:08:36.108Z,954.54
2017-08-05T05:09:36.103Z,954.56
2017-08-05T05:10:36.097Z,954.56
2017-08-05T05:11:36.093Z,954.56
2017-08-05T05:12:36.093Z,954.55
2017-08-05T05:13:36.083Z,954.56
2017-08-05T05:14:36.077Z,954.57
2017-08-05T05:15:36.074Z,954.57
2017-08-05T05:16:36.069Z,954.55
2017-08-05T05:17:36.063Z,954.57
2017-08-05T05:18:36.059Z,954.58
2017-08-05T05:19:36.055Z,954.48
2017-08-05T05:20:36.050Z,954.49
2017-08-05T05:21:36.045Z,954.5
2017-08-05T05:22:36.040Z,954.51
2017-08-05T05:23:36.035Z,954.48
2017-08-05T05:24:36.033Z,954.51
2017-08-05T05:25:36.031Z,954.45
2017-08-05T05:26:36.021Z,954.46
2017-08-05T05:27:36.017Z,954.46
2017-08-05T05:28:36.012Z,954.48
2017-08-05T05:29:36.008Z,954.44
2017-08-05T05:30:36.011Z,954.46
2017-08-05T05:31:35.999Z,954.4
2017-08-05T05:32:36.013Z,954.43
2017-08-05T05:33:35.990Z,954.38
2017-08-05T05:34:35.985Z,954.37
2017-08-05T05:35:35.980Z,954.39
2017-08-05T05:36:35.976Z,954.37
2017-08-05T05:37:35.973Z,954.42
2017-08-05T05:38:35.967Z,954.45
2017-08-05T05:39:35.964Z,954.47
2017-08-05T05:40:35.967Z,954.43
2017-08-05T05:41:35.975Z,954.43
2017-08-05T05:42:35.952Z,954.45
2017-08-05T05:43:35.946Z,954.42
2017-08-05T05:44:35.942Z,954.42
2017-08-05T05:45:35.938Z,954.47
2017-08-05T05:46:35.933Z,954.49
2017-08-05T05:47:35.930Z,954.43
2017-08-05T05:48:35.927Z,954.46
2017-08-05T05:49:35.923Z,954.41
2017-08-05T05:50:35.918Z,954.46
2017-08-05T05:51:35.916Z,954.44
2017-08-05T05:52:35.910Z,954.44
2017-08-05T05:53:35.908Z,954.41
2017-08-05T05:54:35.903Z,954.45
2017-08-05T05:55:35.900Z,954.47
2017-08-05T05:56:35.896Z,954.49
2017-08-05T05:57:35.893Z,954.45
2017-08-05T05:58:35.890Z,954.46
2017-08-05T05:59:35.885Z,954.48
2017-08-05T06:00:35.883Z,954.51
2017-08-05T06:01:35.890Z,954.47
2017-08-05T06:02:35.875Z,954.52
2017-08-05T06:03:35.872Z,954.54
2017-08-05T06:04:35.868Z,954.57
2017-08-05T06:05:35.864Z,954.53
2017-08-05T06:06:35.861Z,954.5
2017-08-05T06:07:35.863Z,954.54
2017-08-05T06:08:35.854Z,954.54
2017-08-05T06:09:35.850Z,954.5
2017-08-05T06:10:35.848Z,954.53
2017-08-05T06:11:35.860Z,954.5
2017-08-05T06:12:35.856Z,954.53
2017-08-05T06:13:35.837Z,954.52
2017-08-05T06:14:35.833Z,954.53
2017-08-05T06:15:35.831Z,954.5
2017-08-05T06:16:35.826Z,954.46
2017-08-05T06:17:35.822Z,954.49
2017-08-05T06:18:35.823Z,954.48
2017-08-05T06:19:35.816Z,954.51
2017-08-05T06:20:35.812Z,954.47
2017-08-05T06:21:35.810Z,954.47
2017-08-05T06:22:35.807Z,954.47
2017-08-05T06:23:35.801Z,954.52
2017-08-05T06:24:35.800Z,954.49
2017-08-05T06:25:35.796Z,954.5
2017-08-05T06:26:35.793Z,954.49
2017-08-05T06:27:35.791Z,954.53
2017-08-05T06:28:35.787Z,954.51
2017-08-05T06:29:35.784Z,954.52
2017-08-05T06:30:35.781Z,954.52
2017-08-05T06:31:35.778Z,954.49
2017-08-05T06:32:35.775Z,954.55
2017-08-05T06:33:35.791Z,954.59
2017-08-05T06:34:35.790Z,954.6
2017-08-05T06:35:35.765Z,954.58
2017-08-05T06:36:35.767Z,954.56
2017-08-05T06:37:35.758Z,954.6
2017-08-05T06:38:35.756Z,954.6
2017-08-05T06:39:35.757Z,954.57
2017-08-05T06:40:35.750Z,954.54
2017-08-05T06:41:35.746Z,954.53
2017-08-05T06:42:35.743Z,954.54
2017-08-05T06:43:35.741Z,954.51
2017-08-05T06:44:35.738Z,954.47
2017-08-05T06:45:35.759Z,954.51
2017-08-05T06:46:35.733Z,954.53
2017-08-05T06:47:35.734Z,954.49
2017-08-05T06:48:35.729Z,954.53
2017-08-05T06:49:35.726Z,954.58
2017-08-05T06:50:35.725Z,954.6
2017-08-05T06:51:35.721Z,954.72
2017-08-05T06:52:35.721Z,954.66
2017-08-05T06:53:35.719Z,954.7
2017-08-05T06:54:35.716Z,954.66
2017-08-05T06:55:35.716Z,954.7
2017-08-05T06:56:35.715Z,954.66
2017-08-05T06:57:35.713Z,954.7
2017-08-05T06:58:35.714Z,954.67
2017-08-05T06:59:35.737Z,954.68
2017-08-05T07:00:35.713Z,954.72
2017-08-05T07:01:35.715Z,954.69
2017-08-05T07:02:35.715Z,954.65
2017-08-05T07:03:35.713Z,954.74
2017-08-05T07:04:35.716Z,954.77
2017-08-05T07:05:35.718Z,954.78
2017-08-05T07:06:35.720Z,954.8
2017-08-05T07:07:35.721Z,954.84
2017-08-05T07:08:35.744Z,954.79
2017-08-05T07:09:35.734Z,954.91
2017-08-05T07:10:35.728Z,954.88
2017-08-05T07:11:35.729Z,954.88
2017-08-05T07:12:35.734Z,954.84
2017-08-05T07:13:35.739Z,954.89
2017-08-05T07:14:35.741Z,954.92
2017-08-05T07:15:35.745Z,954.99
2017-08-05T07:16:35.757Z,955.02
2017-08-05T07:17:35.753Z,954.91
2017-08-05T07:18:35.756Z,955.03
2017-08-05T07:19:35.760Z,955.24
2017-08-05T07:20:35.765Z,955.34
2017-08-05T07:21:35.770Z,955.42
2017-08-05T07:22:35.785Z,955.36
2017-08-05T07:23:35.780Z,955.33
2017-08-05T07:24:35.785Z,955.26
2017-08-05T07:25:35.798Z,955.34
2017-08-05T07:26:35.802Z,955.39
2017-08-05T07:27:35.805Z,955.48
2017-08-05T07:28:35.809Z,955.52
2017-08-05T07:29:35.814Z,955.32
2017-08-05T07:30:35.820Z,954.91
2017-08-05T07:31:35.834Z,954.78
2017-08-05T07:32:35.839Z,954.77
2017-08-05T07:33:35.840Z,954.76
2017-08-05T07:34:35.846Z,954.87
2017-08-05T07:35:35.853Z,954.92
2017-08-05T07:36:35.859Z,954.97
2017-08-05T07:37:35.866Z,955.02
2017-08-05T07:38:35.873Z,955.08
2017-08-05T07:39:35.882Z,955.22
2017-08-05T07:40:35.887Z,955.41
2017-08-05T07:41:35.894Z,955.43
2017-08-05T07:42:36.013Z,955.57
2017-08-05T07:43:35.906Z,955.98
2017-08-05T07:44:35.914Z,956.39
2017-08-05T07:45:35.921Z,956.38
2017-08-05T07:46:35.928Z,956.09
2017-08-05T07:47:35.934Z,955.83
2017-08-05T07:48:35.942Z,955.03
2017-08-05T07:49:35.949Z,954.34
2017-08-05T07:50:35.957Z,954.28
2017-08-05T07:51:35.963Z,954.21
2017-08-05T07:52:35.969Z,954.28
2017-08-05T07:53:35.976Z,954.2
2017-08-05T07:54:35.983Z,954.23
2017-08-05T07:55:35.987Z,954.22
2017-08-05T07:56:35.994Z,954.19
2017-08-05T07:57:36.001Z,954.18
2017-08-05T07:58:36.005Z,954.18
2017-08-05T07:59:36.036Z,954.18
2017-08-05T08:00:36.017Z,954.18
2017-08-05T08:01:36.023Z,954.2
2017-08-05T08:02:36.029Z,954.19
2017-08-05T08:03:36.034Z,954.22
2017-08-05T08:04:36.061Z,954.21
2017-08-05T08:05:36.043Z,954.24
2017-08-05T08:06:36.048Z,954.22
2017-08-05T08:07:36.063Z,954.19
2017-08-05T08:08:36.060Z,954.24
2017-08-05T08:09:36.062Z,954.19
2017-08-05T08:10:36.077Z,954.22
2017-08-05T08:11:36.071Z,954.24
2017-08-05T08:12:36.074Z,954.18
2017-08-05T08:13:36.079Z,954.18
2017-08-05T08:14:36.093Z,954.14
2017-08-05T08:15:36.091Z,954.15
2017-08-05T08:16:36.089Z,954.14
2017-08-05T08:17:36.094Z,954.17
2017-08-05T08:18:36.098Z,954.22
2017-08-05T08:19:36.101Z,954.21
2017-08-05T08:20:36.105Z,954.21
2017-08-05T08:21:36.106Z,954.16
2017-08-05T08:22:36.112Z,954.18
2017-08-05T08:23:36.114Z,954.25
2017-08-05T08:24:36.118Z,954.24
2017-08-05T08:25:36.121Z,954.26
2017-08-05T08:26:36.122Z,954.2
2017-08-05T08:27:36.126Z,954.17
2017-08-05T08:28:36.128Z,954.24
2017-08-05T08:29:36.133Z,954.19
2017-08-05T08:30:36.134Z,954.16
2017-08-05T08:31:36.137Z,954.19
2017-08-05T08:32:36.140Z,954.19
2017-08-05T08:33:36.144Z,954.2
2017-08-05T08:34:36.145Z,954.18
2017-08-05T08:35:36.147Z,954.2
2017-08-05T08:36:36.157Z,954.18
2017-08-05T08:37:36.152Z,954.11
2017-08-05T08:38:36.155Z,954.15
2017-08-05T08:39:36.157Z,954.14
2017-08-05T08:40:36.161Z,954.13
2017-08-05T08:41:36.162Z,954.11
2017-08-05T08:42:36.164Z,954.11
2017-08-05T08:43:36.168Z,954.11
2017-08-05T08:44:36.174Z,954.09
2017-08-05T08:45:36.171Z,954.11
2017-08-05T08:46:36.172Z,954.06
2017-08-05T08:47:36.174Z,954.11
2017-08-05T08:48:36.179Z,954.1
2017-08-05T08:49:36.178Z,954.14
2017-08-05T08:50:36.183Z,954.09
2017-08-05T08:51:36.184Z,954.06
2017-08-05T08:52:36.186Z,954.09
2017-08-05T08:53:36.188Z,954.13
2017-08-05T08:54:36.190Z,954.13
2017-08-05T08:55:36.194Z,954.15
2017-08-05T08:56:36.195Z,954.13
2017-08-05T08:57:36.196Z,954.13
2017-08-05T08:58:36.200Z,954.11
2017-08-05T08:59:36.201Z,954.15
2017-08-05T09:00:36.203Z,954.14
2017-08-05T09:01:36.255Z,954.2
2017-08-05T09:02:36.211Z,954.15
2017-08-05T09:03:36.211Z,954.21
2017-08-05T09:04:36.211Z,954.18
2017-08-05T09:05:36.213Z,954.17
2017-08-05T09:06:36.216Z,954.13
2017-08-05T09:07:36.217Z,954.07
2017-08-05T09:08:36.220Z,954.03
2017-08-05T09:09:36.221Z,954.09
2017-08-05T09:10:36.245Z,954.07
2017-08-05T09:11:36.242Z,954.06
2017-08-05T09:12:36.242Z,954.06
2017-08-05T09:13:36.248Z,954.05
2017-08-05T09:14:36.256Z,954.07
2017-08-05T09:15:36.234Z,954.06
2017-08-05T09:16:36.236Z,954.03
2017-08-05T09:17:36.443Z,954.04
2017-08-05T09:18:36.240Z,954.06
2017-08-05T09:19:36.245Z,954.01
2017-08-05T09:20:36.247Z,953.97
2017-08-05T09:21:36.255Z,953.95
2017-08-05T09:22:36.252Z,953.98
2017-08-05T09:23:36.267Z,953.92
2017-08-05T09:24:36.272Z,953.93
2017-08-05T09:25:36.260Z,953.95
2017-08-05T09:26:36.277Z,953.95
2017-08-05T09:27:36.517Z,953.89
2017-08-05T09:28:36.269Z,953.91
2017-08-05T09:29:36.271Z,953.91
2017-08-05T09:30:36.336Z,953.91
2017-08-05T09:31:36.280Z,953.88
2017-08-05T09:32:36.280Z,953.82
2017-08-05T09:33:36.282Z,953.85
2017-08-05T09:34:36.287Z,953.83
2017-08-05T09:35:36.287Z,953.86
2017-08-05T09:36:36.293Z,953.86
2017-08-05T09:37:36.315Z,953.84
2017-08-05T09:38:36.298Z,953.8
2017-08-05T09:39:36.301Z,953.82
2017-08-05T09:40:36.304Z,953.81
2017-08-05T09:41:36.307Z,953.76
2017-08-05T09:42:36.311Z,953.82
2017-08-05T09:43:36.313Z,953.77
2017-08-05T09:44:36.337Z,953.85
2017-08-05T09:45:36.320Z,953.81
2017-08-05T09:46:36.323Z,953.85
2017-08-05T09:47:36.325Z,953.84
2017-08-05T09:48:36.348Z,953.85
2017-08-05T09:49:36.335Z,953.86
2017-08-05T09:50:36.334Z,953.81
2017-08-05T09:51:36.337Z,953.88
2017-08-05T09:52:36.339Z,953.88
2017-08-05T09:53:36.342Z,953.79
2017-08-05T09:54:36.345Z,953.85
2017-08-05T09:55:36.349Z,953.81
2017-08-05T09:56:36.351Z,953.76
2017-08-05T09:57:36.353Z,953.85
2017-08-05T09:58:36.355Z,953.74
2017-08-05T09:59:36.359Z,953.78
2017-08-05T10:00:36.361Z,953.79
2017-08-05T10:01:36.366Z,953.79
2017-08-05T10:02:36.368Z,953.82
2017-08-05T10:03:36.370Z,953.8
2017-08-05T10:04:36.373Z,953.79
2017-08-05T10:05:36.377Z,953.86
2017-08-05T10:06:36.378Z,953.81
2017-08-05T10:07:36.382Z,953.81
2017-08-05T10:08:36.385Z,953.82
2017-08-05T10:09:36.387Z,953.78
2017-08-05T10:10:36.392Z,953.79
2017-08-05T10:11:36.394Z,953.77
2017-08-05T10:12:36.396Z,953.7
2017-08-05T10:13:36.402Z,953.79
2017-08-05T10:14:36.413Z,953.79
2017-08-05T10:15:36.419Z,953.77
2017-08-05T10:16:36.409Z,953.8
2017-08-05T10:17:36.420Z,953.89
2017-08-05T10:18:36.426Z,953.84
2017-08-05T10:19:36.417Z,953.79
2017-08-05T10:20:36.423Z,953.85
2017-08-05T10:21:36.424Z,953.79
2017-08-05T10:22:36.429Z,953.74
2017-08-05T10:23:36.443Z,953.79
2017-08-05T10:24:36.433Z,953.76
2017-08-05T10:25:36.448Z,953.69
2017-08-05T10:26:36.441Z,953.7
2017-08-05T10:27:36.442Z,953.69
2017-08-05T10:28:36.444Z,953.71
2017-08-05T10:29:36.450Z,953.67
2017-08-05T10:30:36.452Z,953.61
2017-08-05T10:31:36.454Z,953.61
2017-08-05T10:32:36.472Z,953.6
2017-08-05T10:33:36.460Z,953.67
2017-08-05T10:34:36.464Z,953.65
2017-08-05T10:35:36.467Z,953.52
2017-08-05T10:36:36.471Z,953.54
2017-08-05T10:37:36.475Z,953.53
2017-08-05T10:38:36.478Z,953.53
2017-08-05T10:39:36.481Z,953.5
2017-08-05T10:40:36.485Z,953.5
2017-08-05T10:41:36.488Z,953.48
2017-08-05T10:42:36.491Z,953.49
2017-08-05T10:43:36.494Z,953.47
2017-08-05T10:44:36.497Z,953.51
2017-08-05T10:45:36.505Z,953.55
2017-08-05T10:46:36.503Z,953.54
2017-08-05T10:47:36.511Z,953.53
2017-08-05T10:48:36.510Z,953.57
2017-08-05T10:49:36.515Z,953.61
2017-08-05T10:50:36.516Z,953.55
2017-08-05T10:51:36.520Z,953.58
2017-08-05T10:52:36.523Z,953.56
2017-08-05T10:53:36.536Z,953.54
2017-08-05T10:54:36.528Z,953.5
2017-08-05T10:55:36.533Z,953.47
2017-08-05T10:56:36.535Z,953.44
2017-08-05T10:57:36.537Z,953.37
2017-08-05T10:58:36.541Z,953.39
2017-08-05T10:59:36.545Z,953.46
2017-08-05T11:00:36.548Z,953.34
2017-08-05T11:01:36.549Z,953.35
2017-08-05T11:02:36.551Z,953.35
2017-08-05T11:03:36.556Z,953.37
2017-08-05T11:04:36.559Z,953.37
2017-08-05T11:05:36.560Z,953.31
2017-08-05T11:06:36.565Z,953.29
2017-08-05T11:07:36.567Z,953.32
2017-08-05T11:08:36.568Z,953.3
2017-08-05T11:09:36.572Z,953.33
2017-08-05T11:10:36.573Z,953.28
2017-08-05T11:11:36.585Z,953.26
2017-08-05T11:12:36.580Z,953.21
2017-08-05T11:13:36.583Z,953.2
2017-08-05T11:14:36.586Z,953.18
2017-08-05T11:15:36.594Z,953.18
2017-08-05T11:16:36.590Z,953.18
2017-08-05T11:17:36.594Z,953.17
2017-08-05T11:18:36.597Z,953.16
2017-08-05T11:19:36.597Z,953.13
2017-08-05T11:20:36.609Z,953.14
2017-08-05T11:21:36.615Z,953.16
2017-08-05T11:22:36.604Z,953.14
2017-08-05T11:23:36.608Z,953.14
2017-08-05T11:24:36.610Z,953.13
2017-08-05T11:25:36.614Z,953.18
2017-08-05T11:26:36.615Z,953.16
2017-08-05T11:27:36.618Z,953.13
2017-08-05T11:28:36.627Z,953.1
2017-08-05T11:29:36.623Z,953.1
2017-08-05T11:30:36.625Z,953.09
2017-08-05T11:31:36.627Z,953.04
2017-08-05T11:32:36.631Z,952.99
2017-08-05T11:33:36.631Z,952.98
2017-08-05T11:34:36.642Z,952.94
2017-08-05T11:35:36.637Z,953.03
2017-08-05T11:36:36.694Z,953.05
2017-08-05T11:37:36.643Z,953.01
2017-08-05T11:38:36.646Z,953
2017-08-05T11:39:36.647Z,952.91
2017-08-05T11:40:36.651Z,952.9
2017-08-05T11:41:36.654Z,952.84
2017-08-05T11:42:36.655Z,952.96
2017-08-05T11:43:36.678Z,952.9
2017-08-05T11:44:36.660Z,952.88
2017-08-05T11:45:36.700Z,952.87
2017-08-05T11:46:36.667Z,952.84
2017-08-05T11:47:36.669Z,952.86
2017-08-05T11:48:36.670Z,952.84
2017-08-05T11:49:36.688Z,952.88
2017-08-05T11:50:36.687Z,952.72
2017-08-05T11:51:36.679Z,952.87
2017-08-05T11:52:36.680Z,952.86
2017-08-05T11:53:36.682Z,952.88
2017-08-05T11:54:36.703Z,952.91
2017-08-05T11:55:36.688Z,952.88
2017-08-05T11:56:36.696Z,953.02
2017-08-05T11:57:36.693Z,952.9
2017-08-05T11:58:36.694Z,952.92
2017-08-05T11:59:36.697Z,952.92
2017-08-05T12:00:36.700Z,952.9
2017-08-05T12:01:36.701Z,952.88
2017-08-05T12:02:36.705Z,952.9
2017-08-05T12:03:36.706Z,952.98
2017-08-05T12:04:36.709Z,952.99
2017-08-05T12:05:36.712Z,952.91
2017-08-05T12:06:36.722Z,953.03
2017-08-05T12:07:36.718Z,952.95
2017-08-05T12:08:36.720Z,952.93
2017-08-05T12:09:36.723Z,952.98
2017-08-05T12:10:36.726Z,953
2017-08-05T12:11:36.734Z,953
2017-08-05T12:12:36.736Z,953.01
2017-08-05T12:13:36.739Z,953.04
2017-08-05T12:14:36.738Z,953.01
2017-08-05T12:15:36.743Z,953.08
2017-08-05T12:16:36.746Z,953.04
2017-08-05T12:17:36.750Z,953.03
2017-08-05T12:18:36.754Z,953.03
2017-08-05T12:19:36.757Z,952.89
2017-08-05T12:20:36.761Z,952.98
2017-08-05T12:21:36.764Z,952.93
2017-08-05T12:22:36.770Z,952.93
2017-08-05T12:23:36.773Z,952.92
2017-08-05T12:24:36.778Z,952.92
2017-08-05T12:25:36.781Z,952.84
2017-08-05T12:26:36.784Z,952.78
2017-08-05T12:27:36.788Z,952.75
2017-08-05T12:28:36.808Z,952.72
2017-08-05T12:29:36.795Z,952.78
2017-08-05T12:30:36.800Z,952.72